Time;durP1;ratioP1;P1;durP2;ratioP2;P2;SDS_P1;SDS_P2;PMS_P1;PMS_P2;Temp;Humidity;BMP_temperature;BMP_pressure;BME280_temperature;BME280_humidity;BME280_pressure;Samples;Min_cycle;Max_cycle;Signal;HPM_P1;HPM_P2
2022/10/02 00:02:12;;;;;;;;;;;16.20;53.70;;;13.97;59.56;100705.50;12252563;19;20022;-81
2022/10/02 00:06:21;;;;;;;;;;;15.90;53.60;;;13.90;59.48;100709.50;12253147;19;19922;-82
2022/10/02 00:10:40;;;;;;;;;;;16.30;53.80;;;13.80;59.63;100695.31;12253452;19;19919;-81
2022/10/02 00:14:43;;;;;;;;;;;15.90;53.50;;;13.91;59.58;100717.28;12252708;19;19927;-80
2022/10/02 00:18:46;;;;;;;;;;;15.90;53.50;;;13.91;59.60;100726.94;12254070;19;19915;-82
2022/10/02 00:23:08;;;;;;;;;;;15.90;53.60;;;13.80;59.59;100693.56;12253975;19;19933;-79
2022/10/02 00:27:35;;;;;;;;;;;15.90;53.60;;;14.02;59.49;100729.66;12252960;19;19927;-81
2022/10/02 00:32:03;;;;;;;;;;;15.90;53.60;;;13.93;59.49;100704.03;12254689;19;19991;-81
2022/10/02 00:36:19;;;;;;;;;;;16.00;53.60;;;14.06;59.62;100732.91;12250476;19;19918;-81
2022/10/02 00:40:36;;;;;;;;;;;16.00;53.60;;;13.90;59.63;100706.88;12251808;19;20332;-81
2022/10/02 00:45:03;;;;;;;;;;;16.00;53.60;;;13.99;59.62;100723.75;12249582;19;19927;-81
2022/10/02 00:49:13;;;;;;;;;;;16.00;53.60;;;14.05;59.50;100739.94;12251970;19;19967;-81
2022/10/02 00:53:35;;;;;;;;;;;16.00;53.60;;;14.00;59.58;100730.72;12253570;19;19914;-81
2022/10/02 00:58:00;;;;;;;;;;;16.00;53.50;;;13.83;59.55;100718.75;12247158;19;19927;-81
2022/10/02 01:02:12;;;;;;;;;;;16.00;53.60;;;13.98;59.56;100751.81;12251136;19;19907;-81
2022/10/02 01:06:14;;;;;;;;;;;16.00;53.60;;;13.92;59.54;100741.75;12247606;19;20575;-81
2022/10/02 01:10:15;;;;;;;;;;;15.90;53.70;;;13.83;59.46;100730.09;12252670;19;19914;-81
2022/10/02 01:14:17;;;;;;;;;;;15.90;53.60;;;13.93;59.63;100748.66;12249010;19;19926;-81
2022/10/02 01:18:19;;;;;;;;;;;15.90;53.70;;;13.91;59.62;100748.78;12252690;19;19914;-81
2022/10/02 01:22:38;;;;;;;;;;;15.90;53.60;;;13.93;59.48;100761.78;12251417;19;19910;-81
2022/10/02 01:26:39;;;;;;;;;;;15.90;53.50;;;13.87;59.52;100763.06;12242838;19;19927;-80
2022/10/02 01:30:44;;;;;;;;;;;15.90;53.50;;;13.86;59.45;100768.41;12249974;19;19948;-81
2022/10/02 01:34:45;;;;;;;;;;;16.00;53.60;;;13.81;59.65;100768.72;12251221;19;19922;-81
2022/10/02 01:38:48;;;;;;;;;;;15.90;53.60;;;13.71;59.48;100763.25;12250731;19;20330;-81
2022/10/02 01:42:50;;;;;;;;;;;16.10;53.70;;;13.61;59.63;100751.72;12250644;19;19923;-81
2022/10/02 01:47:14;;;;;;;;;;;15.80;53.60;;;13.78;59.61;100789.09;12244784;19;19925;-81
2022/10/02 01:52:07;;;;;;;;;;;15.80;53.60;;;13.75;59.66;100791.94;12263581;19;19925;-81
2022/10/02 01:56:21;;;;;;;;;;;15.70;53.60;;;13.71;59.94;100800.00;12253921;19;19922;-81
2022/10/02 02:00:24;;;;;;;;;;;15.70;53.60;;;13.61;59.70;100783.22;12258420;19;20238;-81
2022/10/02 02:04:41;;;;;;;;;;;15.70;53.60;;;13.69;59.62;100815.03;12260005;19;19915;-81
2022/10/02 02:08:50;;;;;;;;;;;15.70;53.60;;;13.68;59.63;100807.25;12260887;19;19923;-81
2022/10/02 02:13:02;;;;;;;;;;;15.70;53.60;;;13.67;59.71;100805.56;12261948;19;20241;-81
2022/10/02 02:17:11;;;;;;;;;;;15.60;53.50;;;13.53;59.73;100797.75;12255265;19;19919;-81
2022/10/02 02:21:19;;;;;;;;;;;15.80;53.50;;;13.53;59.58;100793.38;12259143;19;19951;-81
2022/10/02 02:25:26;;;;;;;;;;;15.90;53.60;;;13.39;59.82;100789.00;12257226;19;19914;-81
2022/10/02 02:29:32;;;;;;;;;;;15.60;53.70;;;13.56;59.65;100821.19;12257423;19;19919;-81
2022/10/02 02:33:41;;;;;;;;;;;15.50;53.40;;;13.54;59.72;100818.66;12258399;19;19914;-81
2022/10/02 02:37:45;;;;;;;;;;;15.60;53.40;;;13.49;59.77;100823.38;12252993;19;19926;-80
2022/10/02 02:41:54;;;;;;;;;;;15.50;53.30;;;13.35;59.75;100807.69;12256684;19;19931;-81
2022/10/02 02:45:58;;;;;;;;;;;15.50;53.40;;;13.40;59.79;100810.88;12250614;19;19919;-80
2022/10/02 02:50:08;;;;;;;;;;;15.60;53.40;;;13.38;59.79;100818.00;12254198;19;19926;-81
2022/10/02 02:54:14;;;;;;;;;;;15.50;53.30;;;13.43;59.88;100831.66;12256150;19;19956;-81
2022/10/02 02:58:37;;;;;;;;;;;15.40;53.40;;;13.22;59.77;100797.13;12256870;19;19915;-81
2022/10/02 03:02:38;;;;;;;;;;;15.40;53.40;;;13.42;59.83;100832.56;12255996;19;19914;-81
2022/10/02 03:06:43;;;;;;;;;;;15.70;53.50;;;13.37;59.79;100822.41;12254417;19;20270;-81
2022/10/02 03:11:12;;;;;;;;;;;15.70;53.50;;;13.42;59.74;100836.06;12261367;19;19929;-81
2022/10/02 03:15:29;;;;;;;;;;;15.40;53.40;;;13.27;59.82;100816.91;12258575;19;19919;-81
2022/10/02 03:19:46;;;;;;;;;;;15.40;53.40;;;13.37;59.73;100830.25;12259287;19;20354;-81
2022/10/02 03:24:17;;;;;;;;;;;15.40;53.30;;;13.38;59.81;100833.72;12260277;19;20011;-81
2022/10/02 03:28:42;;;;;;;;;;;15.40;53.30;;;13.33;59.82;100839.25;12256485;19;19947;-81
2022/10/02 03:32:45;;;;;;;;;;;15.40;53.30;;;13.30;59.87;100842.09;12261425;19;20292;-81
2022/10/02 03:36:47;;;;;;;;;;;15.40;53.30;;;13.15;59.80;100825.53;12256669;19;19939;-81
2022/10/02 03:40:51;;;;;;;;;;;15.50;53.30;;;13.20;59.87;100830.47;12258036;19;20002;-81
2022/10/02 03:44:53;;;;;;;;;;;15.30;53.30;;;13.16;59.91;100832.47;12258097;19;20246;-81
2022/10/02 03:48:55;;;;;;;;;;;15.30;53.30;;;13.05;59.86;100822.66;12259419;19;19925;-81
2022/10/02 03:52:57;;;;;;;;;;;15.30;53.30;;;13.21;60.00;100845.28;12261475;19;19918;-81
2022/10/02 03:57:03;;;;;;;;;;;15.30;53.30;;;13.12;60.00;100838.81;12255095;19;20379;-81
2022/10/02 04:01:26;;;;;;;;;;;15.20;53.40;;;13.12;60.01;100845.84;12256386;19;20327;-81
2022/10/02 04:05:40;;;;;;;;;;;15.20;53.30;;;13.15;60.10;100846.53;12252970;19;20271;-81
2022/10/02 04:09:52;;;;;;;;;;;15.20;53.40;;;13.17;59.84;100852.47;12256662;19;20337;-81
2022/10/02 04:14:08;;;;;;;;;;;15.20;53.40;;;13.16;59.99;100853.44;12258595;19;19915;-81
2022/10/02 04:18:23;;;;;;;;;;;15.40;53.40;;;13.05;59.96;100833.16;12256249;19;19923;-81
2022/10/02 04:22:34;;;;;;;;;;;15.20;53.30;;;13.13;59.99;100850.19;12255819;19;20349;-81
2022/10/02 04:26:40;;;;;;;;;;;15.20;53.40;;;13.10;59.95;100839.88;12256050;19;19915;-81
2022/10/02 04:30:42;;;;;;;;;;;15.20;53.30;;;12.88;60.11;100820.28;12255207;19;19911;-81
2022/10/02 04:34:43;;;;;;;;;;;15.10;53.30;;;13.01;60.03;100849.16;12255603;19;19914;-82
2022/10/02 04:39:03;;;;;;;;;;;15.10;53.30;;;13.05;60.05;100850.66;12254841;19;19935;-81
2022/10/02 04:43:16;;;;;;;;;;;15.10;53.30;;;13.03;60.06;100855.16;12256575;19;19915;-81
2022/10/02 04:47:39;;;;;;;;;;;15.00;53.30;;;12.95;59.99;100847.78;12252497;19;20445;-81
2022/10/02 04:51:49;;;;;;;;;;;15.10;53.30;;;13.00;60.07;100866.66;12254276;19;20331;-81
2022/10/02 04:56:25;;;;;;;;;;;15.40;53.40;;;12.97;59.99;100866.88;12255110;19;20261;-81
2022/10/02 05:00:35;;;;;;;;;;;15.00;53.30;;;12.80;60.03;100849.59;12255289;19;20000;-81
2022/10/02 05:05:14;;;;;;;;;;;15.00;53.30;;;12.93;60.13;100869.78;12253462;19;19919;-81
2022/10/02 05:10:00;;;;;;;;;;;15.00;53.30;;;12.91;60.10;100869.88;12255498;19;19947;-81
2022/10/02 05:14:05;;;;;;;;;;;15.00;53.40;;;12.93;60.07;100867.16;12251496;19;19943;-81
2022/10/02 05:18:12;;;;;;;;;;;15.10;53.40;;;12.96;60.14;100872.19;12251829;19;19918;-81
2022/10/02 05:22:21;;;;;;;;;;;15.00;53.60;;;12.97;60.08;100866.88;12253778;19;19919;-81
2022/10/02 05:26:47;;;;;;;;;;;15.00;53.50;;;12.88;60.03;100843.00;12261289;19;20250;-81
2022/10/02 05:31:24;;;;;;;;;;;15.00;53.60;;;12.94;60.19;100871.47;12265755;19;19940;-81
2022/10/02 05:35:37;;;;;;;;;;;15.00;53.40;;;13.03;60.15;100876.13;12263240;19;19923;-81
2022/10/02 05:39:47;;;;;;;;;;;15.00;53.60;;;13.05;60.22;100876.88;12265386;19;19918;-81
2022/10/02 05:43:58;;;;;;;;;;;15.00;53.70;;;12.93;60.06;100854.88;12263233;19;19923;-81
2022/10/02 05:48:23;;;;;;;;;;;15.10;53.70;;;12.92;60.10;100855.00;12256602;19;19939;-81
2022/10/02 05:53:02;;;;;;;;;;;15.10;53.70;;;13.12;60.04;100885.19;12262644;19;20268;-81
2022/10/02 05:57:13;;;;;;;;;;;15.10;53.60;;;13.13;60.14;100892.97;12262714;19;19964;-81
2022/10/02 06:01:26;;;;;;;;;;;15.10;53.70;;;12.88;60.03;100851.72;12263037;19;20275;-80
2022/10/02 06:06:00;;;;;;;;;;;15.30;53.80;;;13.06;60.25;100873.31;12258398;19;19930;-81
2022/10/02 06:10:09;;;;;;;;;;;15.10;53.80;;;13.13;60.28;100892.97;12263491;19;19946;-81
2022/10/02 06:14:26;;;;;;;;;;;15.20;53.70;;;13.21;60.25;100880.22;12262240;19;20014;-82
2022/10/02 06:18:30;;;;;;;;;;;15.20;54.00;;;13.36;60.26;100895.94;12261790;19;19919;-80
2022/10/02 06:22:38;;;;;;;;;;;15.30;54.00;;;13.44;60.15;100899.72;12259689;19;20281;-82
2022/10/02 06:26:54;;;;;;;;;;;15.30;53.90;;;13.58;60.31;100919.81;12256232;19;19915;-80
2022/10/02 06:31:03;;;;;;;;;;;15.40;54.10;;;13.54;60.28;100892.13;12260825;19;19986;-80
2022/10/02 06:35:11;;;;;;;;;;;15.50;54.20;;;13.58;60.22;100901.47;12259157;19;19915;-81
2022/10/02 06:39:24;;;;;;;;;;;15.60;54.00;;;13.70;60.40;100919.03;12260129;19;20299;-82
2022/10/02 06:43:32;;;;;;;;;;;15.70;54.30;;;13.73;60.27;100923.25;12261418;19;19915;-81
2022/10/02 06:47:52;;;;;;;;;;;16.00;54.20;;;13.76;60.25;100922.22;12255311;19;19943;-81
2022/10/02 06:52:00;;;;;;;;;;;15.70;54.20;;;13.66;60.50;100900.97;12263245;19;19922;-83
2022/10/02 06:56:05;;;;;;;;;;;15.70;54.30;;;13.83;60.45;100915.63;12258972;19;19931;-82
2022/10/02 07:00:13;;;;;;;;;;;15.80;54.30;;;13.85;60.36;100917.22;12261516;19;20320;-82
2022/10/02 07:04:41;;;;;;;;;;;15.80;54.30;;;13.75;60.54;100889.06;12259628;19;20300;-81
2022/10/02 07:09:07;;;;;;;;;;;15.80;54.20;;;13.84;60.45;100906.81;12261590;19;19918;-82
2022/10/02 07:13:36;;;;;;;;;;;15.90;54.40;;;13.85;60.55;100896.22;12260301;19;19926;-81
2022/10/02 07:17:59;;;;;;;;;;;15.90;54.50;;;14.02;60.54;100917.88;12255495;19;19914;-82
2022/10/02 07:22:20;;;;;;;;;;;15.90;54.60;;;14.10;60.46;100908.53;12259722;19;20341;-81
2022/10/02 07:26:28;;;;;;;;;;;16.00;54.50;;;14.15;60.56;100918.75;12250897;19;19926;-81
2022/10/02 07:30:37;;;;;;;;;;;16.00;54.50;;;14.12;60.51;100909.28;12257074;19;19919;-81
2022/10/02 07:35:12;;;;;;;;;;;16.40;54.60;;;14.27;60.49;100923.16;12253934;19;19918;-81
2022/10/02 07:39:40;;;;;;;;;;;16.20;54.50;;;14.26;60.64;100910.97;12255621;19;20342;-81
2022/10/02 07:44:15;;;;;;;;;;;16.30;54.60;;;14.42;60.67;100931.81;12256183;19;19922;-81
2022/10/02 07:48:35;;;;;;;;;;;16.30;54.50;;;14.46;60.55;100909.59;12254919;19;19914;-81
2022/10/02 07:52:57;;;;;;;;;;;16.30;54.70;;;14.69;60.69;100928.22;12260041;19;19925;-80
2022/10/02 07:57:06;;;;;;;;;;;16.50;55.00;;;14.87;60.71;100918.22;12253846;19;19921;-81
2022/10/02 08:01:15;;;;;;;;;;;16.90;55.00;;;15.03;60.78;100930.19;12252885;19;20248;-81
2022/10/02 08:05:40;;;;;;;;;;;16.80;55.20;;;15.20;60.85;100929.00;12245077;19;19915;-80
2022/10/02 08:09:46;;;;;;;;;;;16.90;55.20;;;15.42;60.85;100933.56;12247173;19;19986;-81
2022/10/02 08:14:06;;;;;;;;;;;17.20;55.50;;;15.60;60.53;100930.53;12249692;19;20252;-81
2022/10/02 08:18:13;;;;;;;;;;;17.30;55.40;;;15.82;60.66;100935.94;12251281;19;19918;-82
2022/10/02 08:22:25;;;;;;;;;;;17.50;55.30;;;16.03;60.46;100917.69;12253670;19;19943;-80
2022/10/02 08:26:35;;;;;;;;;;;17.70;55.40;;;16.18;60.55;100926.25;12249884;19;19919;-81
2022/10/02 08:30:37;;;;;;;;;;;17.90;55.00;;;16.31;60.53;100921.75;12251838;19;19919;-80
2022/10/02 08:34:40;;;;;;;;;;;18.00;55.00;;;16.47;60.50;100918.78;12247482;19;19907;-80
2022/10/02 08:38:57;;;;;;;;;;;18.20;55.00;;;16.69;60.62;100915.31;12248775;19;19918;-80
2022/10/02 08:43:39;;;;;;;;;;;18.40;55.00;;;16.89;60.74;100921.69;12248712;19;20461;-81
2022/10/02 08:47:53;;;;;;;;;;;18.60;55.10;;;17.09;60.40;100919.25;12250637;19;20236;-81
2022/10/02 08:52:02;;;;;;;;;;;18.70;55.10;;;17.18;60.52;100905.34;12252666;19;19911;-82
2022/10/02 08:56:30;;;;;;;;;;;18.90;55.00;;;17.38;60.38;100917.75;12249742;19;19923;-81
2022/10/02 09:00:47;;;;;;;;;;;19.10;54.90;;;17.43;60.08;100906.84;12247060;19;19930;-81
2022/10/02 09:05:18;;;;;;;;;;;19.20;54.60;;;17.48;60.10;100907.31;12251995;19;19922;-80
2022/10/02 09:09:38;;;;;;;;;;;19.30;54.60;;;17.54;60.19;100901.50;12250025;19;19915;-80
2022/10/02 09:14:14;;;;;;;;;;;19.40;54.40;;;17.56;60.30;100901.41;12251703;19;19914;-81
2022/10/02 09:18:40;;;;;;;;;;;19.40;54.30;;;17.60;60.23;100903.66;12260664;19;19923;-79
2022/10/02 09:22:47;;;;;;;;;;;19.50;54.30;;;17.67;60.33;100906.63;12253359;19;20318;-80
2022/10/02 09:27:06;;;;;;;;;;;19.50;54.40;;;17.67;60.37;100902.19;12244286;19;19915;-81
2022/10/02 09:31:13;;;;;;;;;;;19.50;54.20;;;17.79;60.33;100915.38;12250457;19;19923;-80
2022/10/02 09:35:53;;;;;;;;;;;19.60;54.50;;;17.83;60.18;100917.66;12251759;19;20019;-81
2022/10/02 09:40:19;;;;;;;;;;;19.60;54.30;;;17.89;60.29;100921.59;12251677;19;19929;-80
2022/10/02 09:44:57;;;;;;;;;;;19.70;54.10;;;17.93;60.05;100907.16;12248429;19;20383;-80
2022/10/02 09:49:30;;;;;;;;;;;19.80;53.90;;;17.93;60.02;100909.81;12249429;19;19922;-80
2022/10/02 09:54:05;;;;;;;;;;;19.80;53.70;;;17.94;59.90;100903.53;12250760;19;19915;-80
2022/10/02 09:58:07;;;;;;;;;;;19.80;53.90;;;17.97;60.10;100902.44;12245250;19;19923;-80
2022/10/02 10:02:36;;;;;;;;;;;19.80;54.00;;;18.03;59.96;100884.25;12248277;19;19922;-79
2022/10/02 10:07:02;;;;;;;;;;;19.90;54.00;;;18.07;59.96;100892.78;12241646;19;19919;-80
2022/10/02 10:11:21;;;;;;;;;;;19.90;53.90;;;18.14;59.78;100886.00;12252527;19;19911;-80
2022/10/02 10:15:34;;;;;;;;;;;19.90;54.00;;;18.17;60.00;100893.66;12255365;19;19941;-80
2022/10/02 10:20:02;;;;;;;;;;;20.00;53.80;;;18.23;60.18;100887.06;12259474;19;19926;-79
2022/10/02 10:24:23;;;;;;;;;;;20.00;53.90;;;18.28;59.97;100871.59;12256328;19;19944;-79
2022/10/02 10:28:42;;;;;;;;;;;20.10;54.00;;;18.40;59.56;100883.78;12257213;19;19922;-79
2022/10/02 10:33:02;;;;;;;;;;;20.20;53.70;;;18.41;59.58;100882.81;12255251;19;20292;-80
2022/10/02 10:41:46;;;;;;;;;;;20.20;53.70;;;18.29;59.75;100875.94;12252740;19;19911;-79
2022/10/02 10:46:08;;;;;;;;;;;20.20;53.80;;;18.21;59.88;100896.91;12252218;19;20346;-80
2022/10/02 10:50:37;;;;;;;;;;;20.20;53.80;;;18.10;59.63;100905.75;12254269;19;19919;-80
2022/10/02 10:54:54;;;;;;;;;;;20.10;53.80;;;17.95;59.69;100883.25;12253889;19;19927;-80
2022/10/02 10:59:15;;;;;;;;;;;20.00;53.90;;;17.98;59.69;100893.53;12253018;19;19915;-80
2022/10/02 11:03:35;;;;;;;;;;;19.90;54.00;;;17.94;59.87;100908.00;12256019;19;19910;-79
2022/10/02 11:08:05;;;;;;;;;;;19.90;54.20;;;17.88;59.83;100918.09;12246649;19;19955;-79
2022/10/02 11:12:31;;;;;;;;;;;19.80;54.30;;;17.76;60.11;100902.38;12250747;19;19922;-79
2022/10/02 11:17:10;;;;;;;;;;;19.70;54.20;;;17.82;60.07;100915.13;12247968;19;19941;-80
2022/10/02 11:21:38;;;;;;;;;;;19.70;54.30;;;17.79;60.11;100895.06;12251865;19;19917;-80
2022/10/02 11:26:01;;;;;;;;;;;19.70;54.50;;;17.87;59.97;100894.44;12262520;19;19994;-80
2022/10/02 11:30:21;;;;;;;;;;;19.70;54.50;;;17.99;59.98;100901.34;12256863;19;19910;-81
2022/10/02 11:34:44;;;;;;;;;;;19.80;54.80;;;18.13;60.25;100900.19;12257684;19;19927;-79
2022/10/02 11:39:36;;;;;;;;;;;19.80;54.80;;;18.08;59.84;100875.97;12258000;19;19943;-80
2022/10/02 11:44:15;;;;;;;;;;;19.90;54.80;;;18.27;59.97;100893.75;12250630;19;19917;-80
2022/10/02 11:48:46;;;;;;;;;;;20.00;54.70;;;18.28;59.86;100905.97;12255802;19;19923;-81
2022/10/02 11:53:03;;;;;;;;;;;20.00;54.50;;;18.18;59.68;100908.56;12253090;19;19911;-80
2022/10/02 11:57:19;;;;;;;;;;;20.00;54.70;;;18.12;59.73;100904.66;12250675;19;20120;-80
2022/10/02 12:01:32;;;;;;;;;;;20.00;54.40;;;18.01;60.00;100902.06;12254046;19;19942;-80
2022/10/02 12:05:56;;;;;;;;;;;19.90;54.30;;;17.98;59.98;100898.84;12252377;19;19926;-81
2022/10/02 12:10:12;;;;;;;;;;;19.90;54.40;;;17.93;59.77;100886.03;12255695;19;19911;-80
2022/10/02 12:14:23;;;;;;;;;;;20.10;54.70;;;17.96;59.87;100893.69;12255256;19;20355;-81
2022/10/02 12:18:46;;;;;;;;;;;20.00;54.90;;;17.99;59.80;100893.44;12255762;19;20254;-80
2022/10/02 12:27:27;;;;;;;;;;;19.90;55.20;;;17.95;59.79;100899.91;12250793;19;20274;-81
2022/10/02 12:31:52;;;;;;;;;;;19.80;54.90;;;17.96;59.97;100895.47;12251681;19;19919;-82
2022/10/02 12:36:15;;;;;;;;;;;19.70;55.00;;;17.88;60.06;100882.94;12249550;19;20428;-81
2022/10/02 12:40:47;;;;;;;;;;;19.70;55.10;;;17.96;60.00;100906.03;12253704;19;19939;-81
2022/10/02 12:45:07;;;;;;;;;;;19.80;54.90;;;18.01;60.13;100898.56;12251220;19;19930;-80
2022/10/02 12:49:15;;;;;;;;;;;19.80;54.90;;;17.96;60.11;100891.06;12253339;19;19923;-80
2022/10/02 12:53:20;;;;;;;;;;;19.80;54.80;;;18.07;60.29;100898.91;12250886;19;19930;-80
2022/10/02 12:57:52;;;;;;;;;;;20.00;54.90;;;18.11;60.13;100904.75;12250885;19;19922;-79
2022/10/02 13:02:18;;;;;;;;;;;19.90;54.80;;;18.13;60.09;100901.03;12252074;19;20241;-79
2022/10/02 13:06:30;;;;;;;;;;;19.90;54.70;;;18.17;59.91;100900.75;12252594;19;19915;-79
2022/10/02 13:10:56;;;;;;;;;;;19.90;54.70;;;18.20;59.80;100908.44;12249707;19;19915;-79
2022/10/02 13:15:19;;;;;;;;;;;20.00;54.60;;;18.21;59.83;100904.84;12247045;19;19923;-79
2022/10/02 13:19:48;;;;;;;;;;;20.00;54.50;;;18.19;59.78;100896.19;12249184;19;20291;-79
2022/10/02 13:49:04;;;;;;;2.83;0.70;;;18.90;72.00;;;20.49;60.76;100907.47;12312137;19;20385;-89
2022/10/02 13:53:52;;;;;;;3.80;0.50;;;20.20;67.10;;;21.06;62.50;100923.31;12314274;19;20017;-91
2022/10/02 14:06:56;;;;;;;0.45;0.45;;;22.00;61.50;;;22.40;60.97;100900.31;12295822;19;20376;-75
2022/10/02 14:11:10;;;;;;;0.57;0.47;;;22.50;59.00;;;22.77;59.83;100908.00;12295955;19;20353;-75
2022/10/02 14:15:47;;;;;;;0.50;0.50;;;22.80;57.80;;;23.02;59.43;100908.13;12297137;19;20353;-75
2022/10/02 14:23:16;;;;;;;0.50;0.50;;;23.20;57.60;;;23.19;59.43;100896.50;12298410;19;20408;-74
2022/10/02 14:33:25;;;;;;;0.70;0.50;;;23.40;57.50;;;23.06;59.34;100901.44;12296708;19;20680;-77
2022/10/02 14:38:08;;;;;;;0.47;0.47;;;23.30;56.90;;;23.31;58.75;100887.22;12300792;19;20642;-78
2022/10/02 14:42:49;;;;;;;0.40;0.40;;;23.40;56.90;;;23.66;57.83;100908.41;12296795;19;20037;-79
2022/10/02 14:47:54;;;;;;;0.50;0.50;;;23.50;55.90;;;23.86;57.22;100907.09;12296956;19;20031;-78
2022/10/02 14:52:26;;;;;;;0.63;0.63;;;23.70;56.00;;;24.06;56.60;100905.78;12300577;19;20025;-76
2022/10/02 14:57:05;;;;;;;0.47;0.47;;;23.90;55.40;;;24.21;56.19;100902.41;12296919;19;20413;-75
2022/10/02 15:01:21;;;;;;;0.40;0.40;;;24.00;55.30;;;24.34;56.14;100908.06;12293827;19;20019;-76
2022/10/02 15:05:56;;;;;;;0.60;0.60;;;24.10;55.40;;;24.46;55.83;100913.88;12296535;19;20035;-73
2022/10/02 15:10:20;;;;;;;0.47;0.47;;;24.20;55.40;;;24.55;55.65;100912.03;12295792;19;20027;-76
2022/10/02 15:14:47;;;;;;;0.80;0.80;;;24.30;55.10;;;24.63;55.52;100928.88;12296565;19;20047;-75
2022/10/02 15:19:03;;;;;;;0.55;0.55;;;24.40;54.80;;;24.70;54.68;100926.34;12293747;19;20777;-75
2022/10/02 15:28:53;;;;;;;1.55;0.60;;;24.50;55.40;;;22.81;56.41;100929.78;12302960;19;20436;-81
2022/10/02 15:33:06;;;;;;;1.25;0.60;;;24.10;51.80;;;21.86;57.01;100930.47;12302426;19;20576;-82
2022/10/02 15:37:34;;;;;;;0.57;0.52;;;23.40;50.80;;;21.07;57.29;100927.66;12303974;19;20025;-82
2022/10/02 15:42:08;;;;;;;1.05;0.57;;;22.80;51.40;;;20.49;57.19;100942.78;12315944;19;20490;-82
2022/10/02 15:46:45;;;;;;;2.63;0.80;;;22.20;51.70;;;19.99;57.26;100950.97;12310340;19;20010;-81
2022/10/02 15:51:22;;;;;;;1.95;0.70;;;21.60;52.00;;;19.54;57.62;100959.41;12309660;19;20471;-84
2022/10/02 15:55:43;;;;;;;0.77;0.77;;;21.10;52.30;;;19.23;57.48;100958.66;12313295;19;20031;-82
2022/10/02 16:00:09;;;;;;;1.08;0.75;;;20.70;52.50;;;18.94;57.61;100959.41;12309311;19;20010;-82
2022/10/02 16:04:58;;;;;;;1.27;0.50;;;20.30;52.70;;;18.72;57.84;100965.66;12305413;19;20006;-83
2022/10/02 16:09:33;;;;;;;3.10;0.90;;;20.00;53.20;;;18.55;57.79;100967.13;12306393;19;20087;-82
2022/10/02 16:14:11;;;;;;;1.13;0.60;;;19.70;53.50;;;18.39;57.56;100982.59;12307270;19;20401;-82
2022/10/02 16:18:32;;;;;;;2.13;0.80;;;19.50;53.90;;;18.27;57.50;100992.38;12311012;19;20414;-82
2022/10/02 16:23:09;;;;;;;1.15;0.65;;;19.40;54.00;;;18.07;57.59;100983.47;12309167;19;20040;-82
2022/10/02 16:27:19;;;;;;;1.40;1.30;;;19.20;54.20;;;18.04;57.64;101002.25;12304099;19;20011;-83
2022/10/02 16:31:38;;;;;;;1.27;0.85;;;19.00;54.30;;;17.95;57.67;101010.91;12308195;19;20020;-84
2022/10/02 16:35:52;;;;;;;2.20;1.40;;;18.90;54.50;;;17.72;57.63;100990.78;12299382;19;20030;-83
2022/10/02 16:40:19;;;;;;;2.28;1.25;;;18.80;54.60;;;17.74;57.44;101016.13;12258060;19;20599;-82
2022/10/02 16:44:55;;;;;;;3.80;1.73;;;18.80;54.80;;;17.64;57.76;101013.38;12257517;19;20039;-82
2022/10/02 16:49:30;;;;;;;2.92;1.15;;;18.60;54.80;;;17.63;57.39;101026.69;12257412;19;20015;-82
2022/10/02 16:54:08;;;;;;;2.00;1.10;;;18.60;55.00;;;17.55;57.49;101035.25;12252559;19;20501;-83
2022/10/02 16:58:41;;;;;;;1.63;1.25;;;18.40;55.00;;;17.21;57.36;100990.38;12257857;19;20014;-82
2022/10/02 17:02:54;;;;;;;2.90;1.85;;;18.40;55.20;;;17.37;57.42;101021.69;12257462;19;20023;-83
2022/10/02 17:07:14;;;;;;;2.00;1.45;;;18.30;55.30;;;17.40;57.32;101047.00;12253938;19;20014;-84
2022/10/02 17:11:33;;;;;;;2.47;1.75;;;18.40;55.80;;;17.14;57.53;101020.84;12256488;19;20039;-83
2022/10/02 17:15:48;;;;;;;19.77;9.20;;;18.20;55.40;;;17.14;57.45;101025.28;12252333;19;20426;-83
2022/10/02 17:20:00;;;;;;;15.43;7.80;;;18.10;55.50;;;16.92;57.61;101005.84;12261941;19;20007;-85
2022/10/02 17:24:32;;;;;;;10.55;5.65;;;18.00;55.70;;;17.13;57.49;101050.00;12266127;19;20002;-84
2022/10/02 17:29:25;;;;;;;6.85;3.30;;;17.90;55.70;;;16.94;57.59;101043.50;12261963;19;20013;-84
2022/10/02 17:33:45;;;;;;;25.75;10.57;;;17.90;55.90;;;16.90;57.59;101051.78;12267331;19;20409;-83
2022/10/02 17:38:28;;;;;;;22.45;12.02;;;17.80;55.90;;;16.96;57.59;101077.72;12249905;19;20434;-84
2022/10/02 17:42:54;;;;;;;12.85;7.20;;;17.80;56.00;;;16.69;57.49;101044.53;12257526;19;20540;-84
2022/10/02 17:47:35;;;;;;;8.70;4.00;;;17.70;56.10;;;16.88;57.52;101094.13;12268532;19;20042;-84
2022/10/02 17:56:39;;;;;;;5.53;3.33;;;17.60;56.30;;;16.81;57.53;101106.06;12260790;19;20018;-84
2022/10/02 18:01:06;;;;;;;3.72;2.58;;;17.80;56.40;;;16.72;57.79;101110.22;12262297;19;20023;-84
2022/10/02 18:05:22;;;;;;;3.28;1.65;;;17.50;56.50;;;16.68;57.71;101124.56;12258750;19;20023;-84
2022/10/02 18:09:51;;;;;;;2.22;1.30;;;17.50;56.60;;;16.59;57.58;101112.94;12257796;19;20011;-84
2022/10/02 18:14:40;;;;;;;1.90;1.25;;;17.40;56.60;;;16.54;57.76;101122.97;12254451;19;20007;-84
2022/10/02 18:19:20;;;;;;;3.08;1.52;;;17.30;56.70;;;16.49;57.84;101138.28;12258117;19;20491;-84
2022/10/02 18:23:40;;;;;;;1.35;1.25;;;17.30;56.80;;;16.45;57.77;101144.75;12257748;19;20018;-83
2022/10/02 18:27:51;;;;;;;4.45;1.83;;;17.30;56.90;;;16.43;57.79;101144.00;12250657;19;20366;-83
2022/10/02 18:32:35;;;;;;;4.28;1.90;;;17.20;57.00;;;16.24;57.88;101130.50;12255993;19;20492;-84
2022/10/02 18:37:09;;;;;;;1.73;1.52;;;17.10;57.10;;;16.32;57.99;101152.69;12252775;19;20002;-83
2022/10/02 18:41:43;;;;;;;3.80;1.73;;;17.10;57.10;;;16.23;58.17;101147.25;12251241;19;20022;-84
2022/10/02 18:46:31;;;;;;;4.28;1.77;;;17.10;57.20;;;16.22;58.05;101156.94;12246764;19;20011;-84
2022/10/02 18:51:03;;;;;;;1.60;1.50;;;17.00;57.30;;;16.20;58.16;101163.28;12249551;19;20010;-83
2022/10/02 18:55:22;;;;;;;4.63;1.65;;;17.00;57.40;;;16.17;57.94;101166.13;12250481;19;20010;-84
2022/10/02 19:00:00;;;;;;;3.10;1.25;;;17.00;57.40;;;16.13;58.20;101170.78;12250262;19;20015;-84
2022/10/02 19:04:27;;;;;;;3.03;1.55;;;16.90;57.50;;;16.06;58.18;101169.53;12246289;19;20427;-84
2022/10/02 19:09:05;;;;;;;2.00;1.25;;;16.90;57.50;;;16.04;58.21;101181.97;12250058;19;20037;-84
2022/10/02 19:13:26;;;;;;;2.50;1.42;;;16.90;57.50;;;16.04;58.36;101187.25;12251056;19;20043;-85
2022/10/02 19:17:31;;;;;;;2.13;1.50;;;16.80;57.50;;;16.02;58.27;101183.91;12245710;19;20015;-85
2022/10/02 19:21:38;;;;;;;2.05;1.50;;;16.80;57.60;;;15.93;58.25;101178.31;12244991;19;20014;-84
2022/10/02 19:25:46;;;;;;;3.13;1.65;;;16.80;57.50;;;16.05;58.21;101194.22;12246157;19;20003;-84
2022/10/02 19:29:55;;;;;;;2.13;1.90;;;16.80;57.50;;;15.75;58.44;101158.53;12246904;19;20018;-84
2022/10/02 19:34:09;;;;;;;2.05;1.80;;;16.80;57.60;;;15.91;58.58;101188.13;12247542;19;20017;-84
2022/10/02 19:38:32;;;;;;;2.60;2.20;;;16.80;57.50;;;15.92;58.25;101197.69;12244093;19;20014;-84
2022/10/02 19:42:46;;;;;;;2.05;1.52;;;16.70;57.60;;;15.45;58.17;101129.91;12247134;19;20007;-84
2022/10/02 19:46:53;;;;;;;2.20;1.63;;;16.70;57.90;;;15.39;58.27;101135.56;12241645;19;20022;-84
2022/10/02 19:51:01;;;;;;;4.07;1.38;;;16.70;57.60;;;15.43;58.33;101143.16;12243948;19;20011;-85
2022/10/02 19:55:39;;;;;;;3.88;1.55;;;16.60;57.60;;;15.48;58.54;101169.16;12253389;19;20015;-84
2022/10/02 19:59:51;;;;;;;3.25;1.63;;;16.60;57.70;;;15.72;58.42;101216.69;12247054;19;20467;-84